^^
Meteo Knjazevac Station Historical Data
Daily Summary for May 25, 2022 Units:  Metric    English   Both
Daily Weekly Monthly Yearly Custom
  High: Low: Average:
Temperature: 20.8 °C 11 °C 14.1 °C
Dew Point: 16.5 °C 9.5 °C 12.1 °C
Humidity: 94% 75% 88%
Wind Speed: 8km/h 0km/h 1.3km/h
Wind Gust: 16.1km/h - -
Wind- - South
Pressure: 1018.8 hPa 1015.8 hPa -
Precipitation: 0 mm    
Historical Graphs
 
 
Tabular Data for May 25, 2022
Time Temperature Dew Point Pressure Wind Wind Speed Wind Gust Humidity Rainfall Rate (Hourly) solar Conditions
00:00 15.8 °C 12.9 °C 1015.8 hPa Calm   4.8 km/h 83% 0 mm 0 W/m2
00:10 15.6 °C 12.7 °C 1015.8 hPa Calm   1.6 km/h 83% 0 mm 0 W/m2
00:20 15.4 °C 12.5 °C 1015.8 hPa Calm   3.2 km/h 83% 0 mm 0 W/m2
00:30 15.1 °C 12.3 °C 1015.8 hPa Calm   3.2 km/h 83% 0 mm 0 W/m2
00:40 15 °C 12.3 °C 1015.8 hPa Calm   1.6 km/h 84% 0 mm 0 W/m2
00:50 14.8 °C 12.1 °C 1016.1 hPa Calm   3.2 km/h 84% 0 mm 0 W/m2
01:00 14.6 °C 11.9 °C 1016.1 hPa Calm     84% 0 mm 0 W/m2
01:10 14.4 °C 11.7 °C 1016.1 hPa Calm   1.6 km/h 84% 0 mm 0 W/m2
01:20 14.1 °C 11.7 °C 1016.1 hPa Calm   3.2 km/h 85% 0 mm 0 W/m2
01:30 13.9 °C 11.4 °C 1016.1 hPa Calm   3.2 km/h 85% 0 mm 0 W/m2
01:40 13.8 °C 11.5 °C 1016.1 hPa NW 1.6 km/h 3.2 km/h 86% 0 mm 0 W/m2
01:50 13.7 °C 11.4 °C 1016.1 hPa West 1.6 km/h 3.2 km/h 86% 0 mm 0 W/m2
02:00 13.5 °C 11.6 °C 1016.1 hPa WNW 1.6 km/h 4.8 km/h 88% 0 mm 0 W/m2
02:10 13.4 °C 11.4 °C 1016.1 hPa Calm   3.2 km/h 88% 0 mm 0 W/m2
02:20 13.2 °C 10.9 °C 1016.1 hPa Calm   3.2 km/h 86% 0 mm 0 W/m2
02:30 13.1 °C 11.2 °C 1016.5 hPa Calm   1.6 km/h 88% 0 mm 0 W/m2
02:40 13 °C 11.2 °C 1016.5 hPa Calm   3.2 km/h 89% 0 mm 0 W/m2
02:50 12.8 °C 11.1 °C 1016.5 hPa West 1.6 km/h 4.8 km/h 89% 0 mm 0 W/m2
03:00 12.7 °C 11.1 °C 1016.8 hPa WNW 1.6 km/h 3.2 km/h 90% 0 mm 0 W/m2
03:20 12.6 °C 11 °C 1016.8 hPa Calm   3.2 km/h 90% 0 mm 0 W/m2
03:30 12.5 °C 10.9 °C 1016.8 hPa NNW 1.6 km/h 3.2 km/h 90% 0 mm 0 W/m2
03:40 12.4 °C 10.9 °C 1017.2 hPa Calm   3.2 km/h 91% 0 mm 0 W/m2
03:50 12.3 °C 10.9 °C 1017.2 hPa Calm   3.2 km/h 91% 0 mm 0 W/m2
04:00 12.2 °C 10.8 °C 1017.2 hPa Calm   3.2 km/h 91% 0 mm 0 W/m2
04:10 12.2 °C 10.8 °C 1017.2 hPa Calm   3.2 km/h 91% 0 mm 0 W/m2
04:20 12.1 °C 10.7 °C 1017.2 hPa Calm   3.2 km/h 91% 0 mm 0 W/m2
04:30 12 °C 10.9 °C 1017.2 hPa Calm   3.2 km/h 93% 0 mm 0 W/m2
04:40 11.9 °C 10.5 °C 1017.5 hPa Calm   3.2 km/h 91% 0 mm 0 W/m2
04:50 11.7 °C 10.1 °C 1017.5 hPa Calm   1.6 km/h 90% 0 mm 0 W/m2
05:00 11.5 °C 9.9 °C 1017.5 hPa Calm     90% 0 mm 3 W/m2
05:10 11.3 °C 9.7 °C 1017.5 hPa Calm     90% 0 mm 8 W/m2
05:20 11.3 °C 9.7 °C 1017.5 hPa Calm   1.6 km/h 90% 0 mm 13 W/m2
05:30 11.2 °C 9.8 °C 1017.5 hPa Calm   3.2 km/h 91% 0 mm 21 W/m2
05:40 11.1 °C 9.5 °C 1017.8 hPa NNW 1.6 km/h 3.2 km/h 90% 0 mm 31 W/m2
05:50 11 °C 9.6 °C 1017.8 hPa NW 1.6 km/h 4.8 km/h 91% 0 mm 42 W/m2
06:00 11.1 °C 10 °C 1017.8 hPa Calm   3.2 km/h 93% 0 mm 57 W/m2
06:10 11.3 °C 10.2 °C 1017.8 hPa NW 1.6 km/h 3.2 km/h 93% 0 mm 93 W/m2
06:20 11.3 °C 9.9 °C 1017.8 hPa Calm   1.6 km/h 91% 0 mm 108 W/m2
06:30 11.4 °C 10 °C 1017.8 hPa Calm   1.6 km/h 91% 0 mm 91 W/m2
06:40 11.6 °C 10.5 °C 1018.2 hPa Calm   3.2 km/h 93% 0 mm 169 W/m2
06:50 11.9 °C 10.8 °C 1017.8 hPa Calm   3.2 km/h 93% 0 mm 76 W/m2
07:00 12.2 °C 11.3 °C 1018.2 hPa Calm   4.8 km/h 94% 0 mm 198 W/m2
07:10 12.6 °C 11.7 °C 1017.8 hPa North 1.6 km/h 4.8 km/h 94% 0 mm 216 W/m2
07:20 12.9 °C 11.9 °C 1017.8 hPa SW 3.2 km/h 4.8 km/h 94% 0 mm 161 W/m2
07:30 13.2 °C 12.3 °C 1018.2 hPa Calm   4.8 km/h 94% 0 mm 346 W/m2
07:40 13.8 °C 12.8 °C 1018.2 hPa NW 3.2 km/h 8 km/h 94% 0 mm 237 W/m2
07:50 14.4 °C 13.3 °C 1018.5 hPa NNE 3.2 km/h 9.7 km/h 93% 0 mm 151 W/m2
08:00 14.8 °C 13.3 °C 1018.5 hPa North 3.2 km/h 11.3 km/h 91% 0 mm 423 W/m2
08:10 15.3 °C 13.7 °C 1018.5 hPa North 1.6 km/h 9.7 km/h 90% 0 mm 327 W/m2
08:20 15.7 °C 13.9 °C 1018.8 hPa NW 1.6 km/h 6.4 km/h 89% 0 mm 250 W/m2
08:30 16.1 °C 14.1 °C 1018.2 hPa NE 3.2 km/h 11.3 km/h 88% 0 mm 193 W/m2
08:40 16.3 °C 13.9 °C 1018.2 hPa NNE 3.2 km/h 11.3 km/h 86% 0 mm 220 W/m2
08:50 16.4 °C 14.1 °C 1018.2 hPa North 8 km/h 11.3 km/h 86% 0 mm 214 W/m2
09:00 16.9 °C 14.6 °C 1018.2 hPa SW 3.2 km/h 8 km/h 86% 0 mm 642 W/m2
09:10 17.7 °C 14.8 °C 1018.2 hPa SW 3.2 km/h 8 km/h 83% 0 mm 322 W/m2
09:20 18.3 °C 14.9 °C 1018.5 hPa SSW 3.2 km/h 9.7 km/h 81% 0 mm 665 W/m2
09:30 18.9 °C 15.3 °C 1018.5 hPa SW 3.2 km/h 9.7 km/h 80% 0 mm 631 W/m2
09:40 19.4 °C 15.7 °C 1018.5 hPa ENE 3.2 km/h 11.3 km/h 79% 0 mm 719 W/m2
09:50 20.1 °C 16.2 °C 1018.5 hPa NE 4.8 km/h 14.5 km/h 78% 0 mm 751 W/m2
10:00 20.7 °C 16.5 °C 1018.2 hPa NNE 3.2 km/h 16.1 km/h 77% 0 mm 467 W/m2
10:10 20.6 °C 16 °C 1018.5 hPa NE 4.8 km/h 12.9 km/h 75% 0 mm 303 W/m2
10:20 20.8 °C 16.2 °C 1018.5 hPa NNE 4.8 km/h 11.3 km/h 75% 0 mm 534 W/m2
Knjazevac, Serbia
Compliments of Weather Underground - 2 mb